Time;durP1;ratioP1;P1;durP2;ratioP2;P2;SDS_P1;SDS_P2;PMS_P1;PMS_P2;Temp;Humidity;BMP_temperature;BMP_pressure;BME280_temperature;BME280_humidity;BME280_pressure;Samples;Min_cycle;Max_cycle;Signal;HPM_P1;HPM_P2
2023/10/03 00:00:09;;;;;;;0.50;0.50;;;;;;;;;;5096896;28;20222;-90
2023/10/03 00:02:35;;;;;;;0.40;0.40;;;;;;;;;;5091082;28;20676;-86
2023/10/03 00:05:01;;;;;;;0.50;0.50;;;;;;;;;;5075930;28;20643;-86
2023/10/03 00:07:27;;;;;;;0.57;0.57;;;;;;;;;;5075960;28;20171;-86
2023/10/03 00:09:53;;;;;;;0.40;0.40;;;;;;;;;;5076288;28;20728;-87
2023/10/03 00:12:19;;;;;;;0.50;0.50;;;;;;;;;;5075872;28;20281;-86
2023/10/03 00:14:46;;;;;;;0.47;0.47;;;;;;;;;;5075899;28;20202;-86
2023/10/03 00:17:12;;;;;;;0.40;0.40;;;;;;;;;;5074440;28;20614;-87
2023/10/03 00:19:38;;;;;;;0.40;0.40;;;;;;;;;;5074962;28;20205;-87
2023/10/03 00:22:04;;;;;;;0.40;0.40;;;;;;;;;;5075368;28;20582;-87
2023/10/03 00:24:30;;;;;;;0.40;0.40;;;;;;;;;;5075133;28;20845;-86
2023/10/03 00:26:56;;;;;;;0.40;0.40;;;;;;;;;;5075223;28;20262;-87
2023/10/03 00:29:26;;;;;;;0.40;0.40;;;;;;;;;;5075608;28;20186;-87
2023/10/03 00:31:52;;;;;;;0.40;0.40;;;;;;;;;;5076984;28;20198;-87
2023/10/03 00:34:22;;;;;;;0.40;0.40;;;;;;;;;;5079949;28;20181;-86
2023/10/03 00:36:50;;;;;;;0.30;0.30;;;;;;;;;;5079971;28;20166;-87
2023/10/03 00:39:16;;;;;;;0.40;0.40;;;;;;;;;;5078783;28;20198;-86
2023/10/03 00:41:43;;;;;;;0.40;0.40;;;;;;;;;;5079081;28;20190;-86
2023/10/03 00:44:10;;;;;;;0.40;0.40;;;;;;;;;;5079844;28;20178;-86
2023/10/03 00:46:36;;;;;;;0.60;0.60;;;;;;;;;;5079643;28;20175;-86
2023/10/03 00:49:04;;;;;;;0.50;0.50;;;;;;;;;;5080363;28;20586;-86
2023/10/03 00:51:35;;;;;;;0.47;0.47;;;;;;;;;;5079733;28;20699;-87
2023/10/03 00:54:02;;;;;;;0.50;0.50;;;;;;;;;;5079236;28;20179;-86
2023/10/03 00:56:28;;;;;;;0.40;0.40;;;;;;;;;;5082362;28;20230;-86
2023/10/03 00:58:54;;;;;;;0.50;0.50;;;;;;;;;;5081790;28;20216;-86
2023/10/03 01:01:21;;;;;;;0.50;0.50;;;;;;;;;;5078637;28;20790;-88
2023/10/03 01:03:48;;;;;;;0.40;0.40;;;;;;;;;;5081904;28;20174;-86
2023/10/03 01:06:15;;;;;;;0.60;0.60;;;;;;;;;;5085527;28;20182;-86
2023/10/03 01:08:46;;;;;;;0.43;0.43;;;;;;;;;;5079137;28;20178;-87
2023/10/03 01:11:15;;;;;;;0.50;0.50;;;;;;;;;;5079615;28;20207;-86
2023/10/03 01:13:49;;;;;;;0.50;0.50;;;;;;;;;;5089499;28;20162;-88
2023/10/03 01:16:29;;;;;;;0.40;0.40;;;;;;;;;;5101351;28;20171;-90
2023/10/03 01:18:59;;;;;;;0.50;0.50;;;;;;;;;;5101797;28;20198;-90
2023/10/03 01:21:25;;;;;;;0.50;0.50;;;;;;;;;;5101380;28;20182;-92
2023/10/03 01:23:51;;;;;;;0.53;0.53;;;;;;;;;;5100602;28;20166;-92
2023/10/03 01:26:18;;;;;;;0.50;0.50;;;;;;;;;;5084451;28;20187;-86
2023/10/03 01:28:44;;;;;;;0.53;0.53;;;;;;;;;;5077752;28;20185;-87
2023/10/03 01:31:11;;;;;;;0.40;0.40;;;;;;;;;;5077900;28;20190;-86
2023/10/03 01:33:38;;;;;;;0.40;0.40;;;;;;;;;;5079241;28;20178;-87
2023/10/03 01:36:04;;;;;;;0.50;0.50;;;;;;;;;;5079966;28;20213;-87
2023/10/03 01:38:31;;;;;;;0.47;0.47;;;;;;;;;;5079025;28;20703;-87
2023/10/03 01:40:58;;;;;;;0.47;0.47;;;;;;;;;;5079999;28;20234;-88
2023/10/03 01:43:24;;;;;;;0.50;0.50;;;;;;;;;;5080350;28;20579;-87
2023/10/03 01:45:50;;;;;;;0.50;0.50;;;;;;;;;;5081708;28;20202;-85
2023/10/03 01:48:18;;;;;;;0.50;0.50;;;;;;;;;;5079727;28;20178;-85
2023/10/03 01:50:44;;;;;;;0.50;0.50;;;;;;;;;;5079514;28;20213;-87
2023/10/03 01:53:11;;;;;;;0.60;0.60;;;;;;;;;;5077393;28;20605;-85
2023/10/03 01:55:37;;;;;;;0.57;0.57;;;;;;;;;;5078759;28;20257;-86
2023/10/03 01:58:04;;;;;;;0.60;0.60;;;;;;;;;;5078143;28;20274;-85
2023/10/03 02:00:30;;;;;;;0.40;0.40;;;;;;;;;;5078538;28;20220;-86
2023/10/03 02:02:57;;;;;;;0.50;0.50;;;;;;;;;;5077086;28;20694;-86
2023/10/03 02:05:27;;;;;;;0.50;0.50;;;;;;;;;;5079103;28;20587;-87
2023/10/03 02:08:03;;;;;;;0.60;0.60;;;;;;;;;;5078753;28;20189;-86
2023/10/03 02:10:29;;;;;;;0.50;0.50;;;;;;;;;;5078621;28;20182;-85
2023/10/03 02:12:56;;;;;;;0.50;0.50;;;;;;;;;;5094962;28;20207;-90
2023/10/03 02:15:26;;;;;;;0.50;0.50;;;;;;;;;;5099202;28;20187;-89
2023/10/03 02:17:53;;;;;;;0.50;0.50;;;;;;;;;;5098767;28;20170;-89
2023/10/03 02:20:25;;;;;;;0.60;0.60;;;;;;;;;;5099337;28;20243;-89
2023/10/03 02:22:55;;;;;;;0.53;0.53;;;;;;;;;;5093888;28;20203;-87
2023/10/03 02:25:22;;;;;;;0.57;0.57;;;;;;;;;;5079170;28;20175;-86
2023/10/03 02:27:49;;;;;;;0.53;0.53;;;;;;;;;;5079458;28;20190;-86
2023/10/03 02:30:19;;;;;;;0.50;0.50;;;;;;;;;;5077994;28;20186;-86
2023/10/03 02:32:45;;;;;;;0.50;0.50;;;;;;;;;;5079982;28;20194;-86
2023/10/03 02:35:14;;;;;;;0.40;0.40;;;;;;;;;;5079824;28;20296;-86
2023/10/03 02:37:40;;;;;;;0.50;0.50;;;;;;;;;;5078484;28;20174;-87
2023/10/03 02:40:07;;;;;;;0.50;0.50;;;;;;;;;;5078407;28;20202;-86
2023/10/03 02:42:37;;;;;;;0.73;0.73;;;;;;;;;;5077889;28;20195;-86
2023/10/03 02:45:04;;;;;;;0.60;0.60;;;;;;;;;;5095075;28;20167;-89
2023/10/03 02:47:30;;;;;;;0.50;0.50;;;;;;;;;;5095588;28;20183;-88
2023/10/03 02:49:56;;;;;;;0.43;0.43;;;;;;;;;;5093208;28;20187;-87
2023/10/03 02:52:25;;;;;;;0.60;0.60;;;;;;;;;;5075760;28;20194;-86
2023/10/03 02:54:51;;;;;;;0.50;0.50;;;;;;;;;;5077858;28;20179;-86
2023/10/03 02:57:18;;;;;;;0.50;0.50;;;;;;;;;;5076410;28;20179;-87
2023/10/03 02:59:44;;;;;;;0.60;0.60;;;;;;;;;;5074878;28;20305;-88
2023/10/03 03:02:14;;;;;;;0.60;0.60;;;;;;;;;;5076261;28;20210;-87
2023/10/03 03:04:41;;;;;;;0.57;0.57;;;;;;;;;;5076385;28;20179;-88
2023/10/03 03:07:07;;;;;;;0.50;0.50;;;;;;;;;;5077893;28;20187;-87
2023/10/03 03:09:35;;;;;;;0.70;0.70;;;;;;;;;;5076444;28;20277;-86
2023/10/03 03:12:01;;;;;;;0.60;0.60;;;;;;;;;;5077563;28;20206;-87
2023/10/03 03:14:27;;;;;;;0.60;0.60;;;;;;;;;;5088805;28;20166;-90
2023/10/03 03:16:54;;;;;;;0.60;0.60;;;;;;;;;;5098454;28;20265;-88
2023/10/03 03:19:20;;;;;;;0.60;0.60;;;;;;;;;;5098635;28;20229;-91
2023/10/03 03:21:46;;;;;;;0.60;0.60;;;;;;;;;;5098216;28;20189;-89
2023/10/03 03:24:15;;;;;;;0.50;0.50;;;;;;;;;;5098973;28;20166;-87
2023/10/03 03:26:47;;;;;;;0.60;0.60;;;;;;;;;;5094568;28;20178;-86
2023/10/03 03:29:20;;;;;;;0.60;0.60;;;;;;;;;;5094504;28;20167;-87
2023/10/03 03:31:47;;;;;;;0.60;0.60;;;;;;;;;;5096841;28;20182;-89
2023/10/03 03:34:13;;;;;;;0.50;0.50;;;;;;;;;;5095520;28;20177;-88
2023/10/03 03:36:40;;;;;;;0.60;0.60;;;;;;;;;;5094252;28;20174;-89
2023/10/03 03:39:15;;;;;;;0.50;0.50;;;;;;;;;;5093867;28;20202;-88
2023/10/03 03:41:42;;;;;;;0.43;0.43;;;;;;;;;;5093563;28;20269;-87
2023/10/03 03:44:12;;;;;;;0.53;0.53;;;;;;;;;;5094503;28;20159;-87
2023/10/03 03:46:41;;;;;;;0.50;0.50;;;;;;;;;;5093534;28;20230;-88
2023/10/03 03:49:12;;;;;;;0.60;0.60;;;;;;;;;;5094378;28;20181;-88
2023/10/03 03:51:40;;;;;;;0.50;0.50;;;;;;;;;;5094002;28;20257;-87
2023/10/03 03:54:11;;;;;;;0.50;0.50;;;;;;;;;;5093530;28;20233;-88
2023/10/03 03:56:38;;;;;;;0.60;0.60;;;;;;;;;;5093120;28;20174;-88
2023/10/03 03:59:05;;;;;;;0.67;0.67;;;;;;;;;;5074487;28;20293;-86
2023/10/03 04:01:33;;;;;;;0.50;0.50;;;;;;;;;;5073142;28;20201;-87
2023/10/03 04:04:00;;;;;;;0.50;0.50;;;;;;;;;;5074862;28;20248;-86
2023/10/03 04:06:25;;;;;;;0.50;0.50;;;;;;;;;;5072870;28;20186;-87
2023/10/03 04:08:52;;;;;;;0.67;0.67;;;;;;;;;;5074632;28;20189;-88
2023/10/03 04:11:18;;;;;;;0.57;0.57;;;;;;;;;;5074417;28;20186;-87
2023/10/03 04:13:50;;;;;;;0.50;0.50;;;;;;;;;;5074594;28;20177;-86
2023/10/03 04:16:17;;;;;;;0.60;0.60;;;;;;;;;;5073980;28;20196;-87
2023/10/03 04:18:44;;;;;;;0.50;0.50;;;;;;;;;;5074527;28;20624;-87
2023/10/03 04:21:13;;;;;;;0.50;0.50;;;;;;;;;;5073560;28;20216;-86
2023/10/03 04:23:40;;;;;;;0.60;0.60;;;;;;;;;;5074886;28;20644;-88
2023/10/03 04:26:08;;;;;;;0.50;0.50;;;;;;;;;;5075057;28;20193;-87
2023/10/03 04:28:35;;;;;;;0.50;0.50;;;;;;;;;;5075631;28;20200;-87
2023/10/03 04:31:01;;;;;;;0.60;0.60;;;;;;;;;;5074444;28;20706;-87
2023/10/03 04:33:27;;;;;;;0.60;0.60;;;;;;;;;;5077162;28;20171;-87
2023/10/03 04:35:53;;;;;;;0.50;0.50;;;;;;;;;;5077942;28;20170;-86
2023/10/03 04:38:19;;;;;;;0.40;0.40;;;;;;;;;;5077676;28;20206;-86
2023/10/03 04:40:47;;;;;;;0.57;0.57;;;;;;;;;;5097881;28;20202;-91
2023/10/03 04:43:14;;;;;;;0.50;0.50;;;;;;;;;;5098461;28;20167;-90
2023/10/03 04:45:44;;;;;;;0.60;0.60;;;;;;;;;;5098559;28;20163;-90
2023/10/03 04:48:11;;;;;;;0.50;0.50;;;;;;;;;;5098421;28;20226;-87
2023/10/03 04:50:39;;;;;;;0.50;0.50;;;;;;;;;;5076919;28;20175;-88
2023/10/03 04:53:07;;;;;;;0.57;0.57;;;;;;;;;;5087202;28;20187;-90
2023/10/03 04:55:33;;;;;;;0.50;0.50;;;;;;;;;;5096131;28;20148;-91
2023/10/03 04:57:59;;;;;;;0.60;0.60;;;;;;;;;;5096658;28;20351;-90
2023/10/03 05:00:26;;;;;;;0.50;0.50;;;;;;;;;;5096758;28;20192;-88
2023/10/03 05:02:53;;;;;;;0.53;0.53;;;;;;;;;;5081791;28;20198;-87
2023/10/03 05:05:20;;;;;;;0.70;0.70;;;;;;;;;;5074720;28;20174;-86
2023/10/03 05:07:47;;;;;;;0.50;0.50;;;;;;;;;;5073313;28;20163;-86
2023/10/03 05:10:13;;;;;;;0.50;0.50;;;;;;;;;;5073382;28;20182;-86
2023/10/03 05:12:39;;;;;;;0.40;0.40;;;;;;;;;;5075158;28;20633;-87
2023/10/03 05:15:08;;;;;;;0.50;0.50;;;;;;;;;;5074555;28;20185;-86
2023/10/03 05:17:35;;;;;;;0.53;0.53;;;;;;;;;;5075426;28;20180;-86
2023/10/03 05:20:02;;;;;;;0.50;0.50;;;;;;;;;;5077931;28;20671;-87
2023/10/03 05:22:29;;;;;;;0.50;0.50;;;;;;;;;;5079608;28;20652;-86
2023/10/03 05:24:55;;;;;;;0.60;0.60;;;;;;;;;;5085687;28;20691;-87
2023/10/03 05:27:21;;;;;;;0.50;0.50;;;;;;;;;;5101579;28;20780;-88
2023/10/03 05:29:47;;;;;;;0.50;0.50;;;;;;;;;;5101452;28;20159;-89
2023/10/03 05:32:14;;;;;;;0.60;0.60;;;;;;;;;;5101331;28;20215;-90
2023/10/03 05:34:40;;;;;;;0.60;0.60;;;;;;;;;;5100466;28;20190;-91
2023/10/03 05:37:06;;;;;;;0.57;0.57;;;;;;;;;;5100041;28;20179;-90
2023/10/03 05:39:32;;;;;;;0.50;0.50;;;;;;;;;;5086036;28;20588;-87
2023/10/03 05:42:00;;;;;;;0.60;0.60;;;;;;;;;;5070533;28;20258;-86
2023/10/03 05:44:29;;;;;;;0.50;0.50;;;;;;;;;;5075027;28;20270;-89
2023/10/03 05:46:56;;;;;;;0.60;0.60;;;;;;;;;;5091723;28;20167;-88
2023/10/03 05:49:24;;;;;;;0.50;0.50;;;;;;;;;;5086535;28;20171;-86
2023/10/03 05:51:55;;;;;;;0.50;0.50;;;;;;;;;;5072200;28;20190;-87
2023/10/03 05:54:21;;;;;;;0.57;0.57;;;;;;;;;;5064461;28;20193;-89
2023/10/03 05:56:47;;;;;;;0.63;0.63;;;;;;;;;;5063352;28;20181;-88
2023/10/03 05:59:14;;;;;;;0.57;0.57;;;;;;;;;;5059099;28;20199;-87
2023/10/03 06:01:42;;;;;;;0.60;0.60;;;;;;;;;;5068948;28;20202;-88
2023/10/03 06:04:08;;;;;;;0.70;0.70;;;;;;;;;;5068293;28;20175;-87
2023/10/03 06:06:34;;;;;;;0.50;0.50;;;;;;;;;;5068580;28;20178;-87
2023/10/03 06:09:00;;;;;;;0.70;0.70;;;;;;;;;;5064800;28;20170;-86
2023/10/03 06:11:26;;;;;;;0.50;0.50;;;;;;;;;;5068397;28;20205;-86
2023/10/03 06:13:52;;;;;;;0.60;0.60;;;;;;;;;;5066627;28;20183;-85
2023/10/03 06:16:21;;;;;;;0.50;0.50;;;;;;;;;;5064730;28;20189;-88
2023/10/03 06:18:47;;;;;;;0.50;0.50;;;;;;;;;;5063562;28;20191;-87
2023/10/03 06:21:13;;;;;;;0.50;0.50;;;;;;;;;;5071382;28;20202;-87
2023/10/03 06:23:46;;;;;;;0.50;0.50;;;;;;;;;;5066419;28;20179;-87
2023/10/03 06:26:18;;;;;;;0.60;0.60;;;;;;;;;;5070391;28;20627;-89
2023/10/03 06:28:44;;;;;;;0.50;0.50;;;;;;;;;;5062653;28;20182;-88
2023/10/03 06:31:13;;;;;;;0.60;0.60;;;;;;;;;;5067033;28;20190;-87
2023/10/03 06:33:40;;;;;;;0.50;0.50;;;;;;;;;;5060839;28;20645;-86
2023/10/03 06:36:08;;;;;;;0.50;0.50;;;;;;;;;;5067945;28;20191;-86
2023/10/03 06:38:34;;;;;;;0.40;0.40;;;;;;;;;;5066507;28;20256;-87
2023/10/03 06:41:00;;;;;;;0.40;0.40;;;;;;;;;;5069212;28;20197;-85
2023/10/03 06:43:26;;;;;;;0.40;0.40;;;;;;;;;;5060849;28;20167;-86
2023/10/03 06:45:52;;;;;;;0.30;0.30;;;;;;;;;;5068159;28;20182;-86
2023/10/03 06:48:21;;;;;;;0.30;0.30;;;;;;;;;;5067768;28;20175;-86
2023/10/03 06:50:47;;;;;;;0.30;0.30;;;;;;;;;;5065297;28;20612;-86
2023/10/03 06:53:13;;;;;;;0.30;0.30;;;;;;;;;;5061246;28;20175;-84
2023/10/03 06:55:39;;;;;;;0.30;0.30;;;;;;;;;;5062663;28;20172;-85
2023/10/03 06:58:06;;;;;;;0.30;0.30;;;;;;;;;;5065924;28;20179;-86
2023/10/03 07:00:34;;;;;;;0.30;0.30;;;;;;;;;;5071230;28;20174;-86
2023/10/03 07:03:00;;;;;;;0.20;0.20;;;;;;;;;;5067709;28;20646;-86
2023/10/03 07:05:26;;;;;;;0.40;0.40;;;;;;;;;;5068540;28;20178;-86
2023/10/03 07:07:53;;;;;;;0.30;0.30;;;;;;;;;;5068552;28;20174;-89
2023/10/03 07:10:21;;;;;;;0.50;0.50;;;;;;;;;;5063140;28;20179;-87
2023/10/03 07:12:47;;;;;;;0.30;0.30;;;;;;;;;;5069560;28;20203;-86
2023/10/03 07:15:13;;;;;;;0.40;0.40;;;;;;;;;;5067235;28;20233;-85
2023/10/03 07:17:39;;;;;;;0.50;0.50;;;;;;;;;;5073380;28;20183;-87
2023/10/03 07:20:08;;;;;;;0.40;0.40;;;;;;;;;;5072313;28;20313;-84
2023/10/03 07:22:34;;;;;;;0.40;0.40;;;;;;;;;;5076685;28;20191;-88
2023/10/03 07:25:00;;;;;;;0.53;0.53;;;;;;;;;;5091038;28;20201;-85
2023/10/03 07:27:26;;;;;;;0.60;0.60;;;;;;;;;;5089222;28;20183;-89
2023/10/03 07:29:52;;;;;;;0.60;0.60;;;;;;;;;;5090297;28;20159;-88
2023/10/03 07:32:19;;;;;;;0.50;0.50;;;;;;;;;;5088654;28;20206;-86
2023/10/03 07:34:46;;;;;;;0.40;0.40;;;;;;;;;;5082466;28;20205;-88
2023/10/03 07:37:14;;;;;;;0.60;0.60;;;;;;;;;;5077115;28;20186;-88
2023/10/03 07:39:40;;;;;;;0.50;0.50;;;;;;;;;;5090269;28;20204;-87
2023/10/03 07:42:06;;;;;;;0.60;0.60;;;;;;;;;;5076881;28;20206;-88
2023/10/03 07:44:32;;;;;;;0.63;0.63;;;;;;;;;;5074547;28;20179;-89
2023/10/03 07:46:58;;;;;;;0.60;0.60;;;;;;;;;;5092912;28;20693;-87
2023/10/03 07:49:25;;;;;;;0.60;0.60;;;;;;;;;;5074896;28;20166;-87
2023/10/03 07:51:55;;;;;;;0.40;0.40;;;;;;;;;;5081971;28;20187;-89
2023/10/03 07:54:21;;;;;;;0.40;0.40;;;;;;;;;;5067230;28;20190;-88
2023/10/03 07:56:48;;;;;;;0.57;0.57;;;;;;;;;;5074980;28;20170;-89
2023/10/03 07:59:14;;;;;;;0.20;0.20;;;;;;;;;;5075848;28;20221;-87
2023/10/03 08:01:42;;;;;;;0.40;0.40;;;;;;;;;;5069628;28;20646;-86
2023/10/03 08:04:12;;;;;;;0.20;0.20;;;;;;;;;;5054906;28;20176;-87
2023/10/03 08:06:42;;;;;;;0.20;0.20;;;;;;;;;;5056530;28;20183;-88
2023/10/03 08:09:08;;;;;;;0.13;0.13;;;;;;;;;;5064719;28;20182;-90
2023/10/03 08:11:34;;;;;;;0.30;0.30;;;;;;;;;;5065395;28;20187;-86
2023/10/03 08:14:14;;;;;;;0.20;0.20;;;;;;;;;;5081118;28;20179;-88
2023/10/03 08:16:40;;;;;;;0.10;0.10;;;;;;;;;;5096679;28;20173;-87
2023/10/03 08:19:08;;;;;;;0.10;0.10;;;;;;;;;;5080664;28;20207;-85
2023/10/03 08:21:34;;;;;;;0.10;0.10;;;;;;;;;;5057641;28;20226;-85
2023/10/03 08:24:09;;;;;;;0.10;0.10;;;;;;;;;;5056988;28;20183;-87
2023/10/03 08:26:37;;;;;;;0.10;0.10;;;;;;;;;;5055470;28;20186;-89
2023/10/03 08:29:06;;;;;;;0.10;0.10;;;;;;;;;;5056055;28;20198;-89
2023/10/03 08:31:32;;;;;;;0.20;0.20;;;;;;;;;;5054658;28;20218;-89
2023/10/03 08:33:58;;;;;;;0.10;0.10;;;;;;;;;;5056574;28;20185;-90
2023/10/03 08:36:30;;;;;;;0.00;0.00;;;;;;;;;;5056742;28;20171;-89
2023/10/03 08:39:12;;;;;;;0.00;0.00;;;;;;;;;;5055717;28;20236;-89
2023/10/03 08:41:45;;;;;;;0.20;0.20;;;;;;;;;;5058467;28;20281;-89
2023/10/03 08:44:14;;;;;;;0.32;0.32;;;;;;;;;;5064105;28;20250;-89
2023/10/03 08:46:49;;;;;;;0.30;0.30;;;;;;;;;;5076072;28;20183;-89
2023/10/03 08:49:18;;;;;;;0.40;0.40;;;;;;;;;;5085163;28;20191;-87
2023/10/03 08:51:47;;;;;;;0.35;0.35;;;;;;;;;;5077440;28;20770;-85
2023/10/03 08:54:13;;;;;;;0.45;0.45;;;;;;;;;;5073672;28;20211;-88
2023/10/03 08:56:41;;;;;;;0.45;0.45;;;;;;;;;;5081322;28;20178;-85
2023/10/03 08:59:09;;;;;;;0.52;0.52;;;;;;;;;;5081732;28;20293;-89
2023/10/03 09:01:39;;;;;;;0.43;0.43;;;;;;;;;;5081462;28;20286;-89
2023/10/03 09:04:09;;;;;;;0.40;0.40;;;;;;;;;;5081069;28;20175;-86
2023/10/03 09:06:38;;;;;;;0.30;0.30;;;;;;;;;;5082554;28;20174;-87
2023/10/03 09:09:08;;;;;;;0.40;0.40;;;;;;;;;;5080938;28;20178;-87
2023/10/03 09:11:37;;;;;;;0.40;0.40;;;;;;;;;;5089297;28;20194;-84
2023/10/03 09:14:03;;;;;;;0.43;0.43;;;;;;;;;;5097446;28;20171;-84
2023/10/03 09:16:29;;;;;;;0.47;0.47;;;;;;;;;;5106394;28;20205;-83
2023/10/03 09:19:00;;;;;;;0.60;0.60;;;;;;;;;;5098801;28;20220;-85
2023/10/03 09:21:29;;;;;;;0.40;0.40;;;;;;;;;;5099482;28;20273;-84
2023/10/03 09:24:02;;;;;;;0.45;0.45;;;;;;;;;;5099074;28;20255;-86
2023/10/03 09:26:46;;;;;;;0.10;0.10;;;;;;;;;;5098701;28;20647;-85
2023/10/03 09:29:18;;;;;;;0.40;0.40;;;;;;;;;;5099540;28;20177;-85
2023/10/03 09:31:48;;;;;;;0.10;0.10;;;;;;;;;;5101816;28;20220;-84
2023/10/03 09:34:15;;;;;;;0.00;0.00;;;;;;;;;;5098422;28;20174;-87
2023/10/03 09:36:42;;;;;;;0.10;0.10;;;;;;;;;;5099277;28;20265;-86
2023/10/03 09:39:20;;;;;;;0.10;0.10;;;;;;;;;;5098842;28;20206;-85
2023/10/03 09:41:47;;;;;;;0.00;0.00;;;;;;;;;;5097696;28;20254;-86
2023/10/03 09:44:14;;;;;;;0.10;0.10;;;;;;;;;;5097285;28;20178;-88
2023/10/03 09:46:40;;;;;;;0.17;0.17;;;;;;;;;;5097436;28;20281;-86
2023/10/03 09:49:10;;;;;;;0.20;0.20;;;;;;;;;;5099065;28;20166;-85
2023/10/03 09:51:46;;;;;;;0.30;0.30;;;;;;;;;;5098228;28;20262;-87
2023/10/03 09:54:15;;;;;;;0.20;0.20;;;;;;;;;;5099856;28;20177;-87
2023/10/03 09:56:44;;;;;;;0.20;0.20;;;;;;;;;;5099457;28;20178;-85
2023/10/03 09:59:17;;;;;;;0.10;0.10;;;;;;;;;;5097391;28;20274;-86
2023/10/03 10:01:45;;;;;;;0.30;0.30;;;;;;;;;;5097552;28;20193;-87
2023/10/03 10:04:13;;;;;;;0.10;0.10;;;;;;;;;;5097962;28;20662;-87
2023/10/03 10:06:39;;;;;;;0.17;0.17;;;;;;;;;;5101774;28;20201;-85
2023/10/03 10:09:23;;;;;;;0.10;0.10;;;;;;;;;;5100048;28;20230;-88
2023/10/03 10:12:09;;;;;;;0.45;0.45;;;;;;;;;;5098747;28;20746;-86
2023/10/03 10:14:55;;;;;;;0.30;0.30;;;;;;;;;;5099371;28;20275;-86
2023/10/03 10:17:21;;;;;;;0.70;0.70;;;;;;;;;;5097821;28;20241;-87
2023/10/03 10:20:06;;;;;;;0.60;0.60;;;;;;;;;;5098946;28;20209;-85
2023/10/03 10:22:51;;;;;;;0.38;0.38;;;;;;;;;;5099412;28;20181;-87
2023/10/03 10:25:26;;;;;;;0.47;0.47;;;;;;;;;;5096568;28;20180;-85
2023/10/03 10:28:03;;;;;;;0.40;0.40;;;;;;;;;;5098591;28;20635;-87
2023/10/03 10:30:29;;;;;;;0.40;0.40;;;;;;;;;;5115928;28;20185;-85
2023/10/03 10:33:16;;;;;;;0.50;0.50;;;;;;;;;;5118726;28;20197;-85
2023/10/03 10:35:54;;;;;;;0.60;0.60;;;;;;;;;;5120204;28;20172;-85
2023/10/03 10:38:20;;;;;;;0.50;0.50;;;;;;;;;;5120069;28;20181;-85
2023/10/03 10:41:05;;;;;;;0.50;0.50;;;;;;;;;;5119692;28;20193;-86
2023/10/03 10:43:33;;;;;;;0.50;0.50;;;;;;;;;;5119300;28;20408;-83
2023/10/03 10:46:19;;;;;;;0.50;0.50;;;;;;;;;;5119294;28;20176;-87
2023/10/03 10:48:46;;;;;;;0.50;0.50;;;;;;;;;;5119191;28;20162;-85
2023/10/03 10:51:12;;;;;;;0.50;0.50;;;;;;;;;;5119013;28;20174;-85
2023/10/03 10:53:46;;;;;;;0.50;0.50;;;;;;;;;;5118693;28;20170;-87
2023/10/03 10:56:13;;;;;;;0.50;0.50;;;;;;;;;;5119118;28;20219;-85
2023/10/03 10:59:04;;;;;;;0.60;0.60;;;;;;;;;;5118854;28;20297;-85
2023/10/03 11:01:31;;;;;;;0.67;0.67;;;;;;;;;;5099135;28;20564;-86
2023/10/03 11:03:57;;;;;;;0.60;0.60;;;;;;;;;;5097170;28;20257;-88
2023/10/03 11:06:23;;;;;;;0.60;0.60;;;;;;;;;;5096735;28;20561;-87
2023/10/03 11:08:50;;;;;;;0.60;0.60;;;;;;;;;;5095311;28;20320;-86
2023/10/03 11:11:17;;;;;;;0.57;0.57;;;;;;;;;;5095737;28;20216;-87
2023/10/03 11:13:53;;;;;;;0.50;0.50;;;;;;;;;;5096348;28;20230;-85
2023/10/03 11:16:23;;;;;;;0.40;0.40;;;;;;;;;;5096131;28;20184;-86
2023/10/03 11:18:49;;;;;;;0.33;0.33;;;;;;;;;;5096151;28;20271;-86
2023/10/03 11:21:16;;;;;;;0.50;0.50;;;;;;;;;;5097299;28;20194;-84
2023/10/03 11:24:03;;;;;;;0.50;0.50;;;;;;;;;;5096584;28;20174;-86
2023/10/03 11:26:40;;;;;;;0.50;0.50;;;;;;;;;;5097137;28;20177;-86
2023/10/03 11:29:06;;;;;;;0.50;0.50;;;;;;;;;;5096415;28;20170;-87
2023/10/03 11:31:37;;;;;;;0.50;0.50;;;;;;;;;;5101025;28;20596;-85
2023/10/03 11:34:03;;;;;;;0.60;0.60;;;;;;;;;;5103235;28;20174;-86
2023/10/03 11:36:40;;;;;;;0.50;0.50;;;;;;;;;;5114490;28;20180;-85
2023/10/03 11:39:06;;;;;;;0.67;0.67;;;;;;;;;;5116165;28;20185;-85
2023/10/03 11:41:37;;;;;;;0.60;0.60;;;;;;;;;;5114283;28;20197;-87
2023/10/03 11:44:04;;;;;;;0.40;0.40;;;;;;;;;;5098695;28;20253;-85
2023/10/03 11:46:39;;;;;;;0.40;0.40;;;;;;;;;;5097043;28;20181;-88
2023/10/03 11:49:08;;;;;;;0.40;0.40;;;;;;;;;;5096344;28;20262;-86
2023/10/03 11:51:37;;;;;;;0.43;0.43;;;;;;;;;;5095800;28;20283;-87
2023/10/03 11:54:03;;;;;;;0.60;0.60;;;;;;;;;;5094028;28;20174;-84
2023/10/03 11:56:29;;;;;;;0.50;0.50;;;;;;;;;;5095125;28;20207;-87
2023/10/03 11:58:54;;;;;;;0.60;0.60;;;;;;;;;;5095912;28;20259;-85
2023/10/03 12:01:22;;;;;;;0.60;0.60;;;;;;;;;;5094295;28;20204;-86
2023/10/03 12:03:51;;;;;;;0.57;0.57;;;;;;;;;;5095510;28;20201;-89
2023/10/03 12:06:17;;;;;;;0.50;0.50;;;;;;;;;;5096055;28;20186;-87
2023/10/03 12:08:44;;;;;;;0.50;0.50;;;;;;;;;;5095424;28;20173;-85
2023/10/03 12:11:12;;;;;;;0.50;0.50;;;;;;;;;;5095281;28;20273;-89
2023/10/03 12:13:38;;;;;;;0.50;0.50;;;;;;;;;;5082606;28;20690;-86
2023/10/03 12:16:04;;;;;;;0.40;0.40;;;;;;;;;;5058003;28;20183;-88
2023/10/03 12:18:30;;;;;;;0.50;0.50;;;;;;;;;;5055403;28;20211;-87
2023/10/03 12:20:57;;;;;;;0.50;0.50;;;;;;;;;;5056736;28;20906;-86
2023/10/03 12:23:23;;;;;;;0.40;0.40;;;;;;;;;;5066647;28;20171;-84
2023/10/03 12:25:49;;;;;;;0.47;0.47;;;;;;;;;;5066064;28;20206;-86
2023/10/03 12:28:17;;;;;;;0.50;0.50;;;;;;;;;;5064514;28;20232;-86
2023/10/03 12:30:43;;;;;;;0.60;0.60;;;;;;;;;;5030792;28;20251;-86
2023/10/03 12:33:16;;;;;;;0.60;0.60;;;;;;;;;;5065275;28;20186;-87
2023/10/03 12:35:42;;;;;;;0.50;0.50;;;;;;;;;;5064606;28;20186;-88
2023/10/03 12:38:11;;;;;;;0.40;0.40;;;;;;;;;;5071017;28;20757;-86
2023/10/03 12:40:36;;;;;;;0.53;0.53;;;;;;;;;;5075792;28;20175;-86
2023/10/03 12:43:02;;;;;;;0.60;0.60;;;;;;;;;;5079589;28;20265;-85
2023/10/03 12:45:28;;;;;;;0.40;0.40;;;;;;;;;;5077521;28;20183;-86
2023/10/03 12:47:54;;;;;;;0.40;0.40;;;;;;;;;;5080636;28;20179;-88
2023/10/03 12:50:25;;;;;;;0.60;0.60;;;;;;;;;;5080475;28;20171;-85
2023/10/03 12:52:51;;;;;;;0.40;0.40;;;;;;;;;;5071038;28;20230;-86
2023/10/03 12:55:18;;;;;;;0.47;0.47;;;;;;;;;;5060775;28;20617;-87
2023/10/03 12:57:46;;;;;;;0.40;0.40;;;;;;;;;;5059797;28;20190;-84
2023/10/03 13:00:12;;;;;;;0.50;0.50;;;;;;;;;;5060997;28;20196;-87
2023/10/03 13:02:43;;;;;;;0.43;0.43;;;;;;;;;;5060739;28;20207;-87
2023/10/03 13:05:12;;;;;;;0.50;0.50;;;;;;;;;;5060673;28;20301;-87
2023/10/03 13:07:38;;;;;;;0.40;0.40;;;;;;;;;;5060961;28;20187;-88
2023/10/03 13:10:04;;;;;;;0.50;0.50;;;;;;;;;;5061047;28;20604;-87
2023/10/03 13:12:31;;;;;;;0.40;0.40;;;;;;;;;;5059757;28;20206;-87
2023/10/03 13:14:57;;;;;;;0.40;0.40;;;;;;;;;;5061097;28;20179;-90
2023/10/03 13:17:24;;;;;;;0.40;0.40;;;;;;;;;;5059254;28;20185;-90
2023/10/03 13:19:50;;;;;;;0.40;0.40;;;;;;;;;;5059550;28;20210;-86
2023/10/03 13:22:16;;;;;;;0.43;0.43;;;;;;;;;;5060709;28;20195;-85
2023/10/03 13:24:42;;;;;;;0.40;0.40;;;;;;;;;;5064915;28;20556;-85
2023/10/03 13:27:08;;;;;;;0.50;0.50;;;;;;;;;;5098091;28;20208;-85
2023/10/03 13:29:34;;;;;;;0.30;0.30;;;;;;;;;;5099345;28;20173;-84
2023/10/03 13:32:02;;;;;;;0.30;0.30;;;;;;;;;;5098861;28;20206;-86
2023/10/03 13:34:28;;;;;;;0.40;0.40;;;;;;;;;;5098222;28;20178;-88
2023/10/03 13:36:54;;;;;;;0.37;0.37;;;;;;;;;;5097969;28;20552;-86
2023/10/03 13:39:26;;;;;;;0.30;0.30;;;;;;;;;;5094589;28;20231;-87
2023/10/03 13:41:53;;;;;;;0.40;0.40;;;;;;;;;;5096056;28;20287;-84
2023/10/03 13:44:20;;;;;;;0.20;0.20;;;;;;;;;;5096006;28;20258;-85
2023/10/03 13:46:49;;;;;;;0.50;0.50;;;;;;;;;;5098773;28;20170;-87
2023/10/03 13:49:18;;;;;;;0.37;0.37;;;;;;;;;;5098442;28;20169;-87
2023/10/03 13:51:45;;;;;;;0.30;0.30;;;;;;;;;;5099695;28;20186;-88
2023/10/03 13:54:11;;;;;;;0.47;0.47;;;;;;;;;;5104683;28;20174;-82
2023/10/03 13:56:38;;;;;;;0.50;0.50;;;;;;;;;;5117933;28;20202;-84
2023/10/03 13:59:05;;;;;;;0.30;0.30;;;;;;;;;;5102918;28;20206;-86
2023/10/03 14:01:31;;;;;;;0.40;0.40;;;;;;;;;;5097843;28;20210;-87
2023/10/03 14:03:57;;;;;;;0.30;0.30;;;;;;;;;;5097230;28;20673;-84
2023/10/03 14:06:25;;;;;;;0.20;0.20;;;;;;;;;;5096592;28;20197;-88
2023/10/03 14:08:52;;;;;;;0.67;0.67;;;;;;;;;;5085825;28;20216;-86
2023/10/03 14:11:21;;;;;;;0.30;0.30;;;;;;;;;;5105383;28;20194;-84
2023/10/03 14:13:52;;;;;;;0.50;0.50;;;;;;;;;;5089272;28;20185;-90
2023/10/03 14:16:25;;;;;;;0.70;0.70;;;;;;;;;;5109060;28;20166;-83
2023/10/03 14:18:52;;;;;;;0.40;0.40;;;;;;;;;;5077877;28;20206;-90
2023/10/03 14:21:18;;;;;;;0.40;0.40;;;;;;;;;;5077470;28;20199;-90
2023/10/03 14:23:44;;;;;;;0.30;0.30;;;;;;;;;;5077101;28;20181;-86
2023/10/03 14:26:10;;;;;;;0.40;0.40;;;;;;;;;;5076371;28;20380;-85
2023/10/03 14:28:37;;;;;;;0.30;0.30;;;;;;;;;;5076961;28;20548;-86
2023/10/03 14:31:03;;;;;;;0.30;0.30;;;;;;;;;;5077328;28;20255;-86
2023/10/03 14:33:30;;;;;;;0.53;0.53;;;;;;;;;;5077200;28;20178;-84
2023/10/03 14:35:59;;;;;;;0.23;0.23;;;;;;;;;;5073609;28;20174;-85
2023/10/03 14:38:28;;;;;;;0.30;0.30;;;;;;;;;;5070673;28;20170;-84
2023/10/03 14:40:55;;;;;;;0.30;0.30;;;;;;;;;;5075575;28;20181;-84
2023/10/03 14:43:22;;;;;;;0.30;0.30;;;;;;;;;;5074926;28;20177;-84
2023/10/03 14:45:50;;;;;;;0.30;0.30;;;;;;;;;;5077555;28;20166;-84
2023/10/03 14:48:16;;;;;;;0.30;0.30;;;;;;;;;;5074744;28;20236;-87